Time;durP1;ratioP1;P1;durP2;ratioP2;P2;SDS_P1;SDS_P2;PMS_P1;PMS_P2;Temp;Humidity;BMP_temperature;BMP_pressure;BME280_temperature;BME280_humidity;BME280_pressure;Samples;Min_cycle;Max_cycle;Signal;HPM_P1;HPM_P2
2023/03/27 00:02:07;;;;;;;5.30;1.10;;;;;;;3.02;70.43;100172.02;105959;1254;61285;-73
2023/03/27 00:04:34;;;;;;;7.10;1.30;;;;;;;3.02;70.08;100175.33;105767;1257;73135;-71
2023/03/27 00:07:02;;;;;;;4.80;0.90;;;;;;;3.00;69.96;100181.72;105946;1254;62894;-72
2023/03/27 00:09:30;;;;;;;5.90;1.10;;;;;;;3.01;70.12;100185.64;105861;1258;72657;-72
2023/03/27 00:11:58;;;;;;;6.60;1.70;;;;;;;3.00;69.78;100185.77;106397;1258;61215;-70
2023/03/27 00:14:24;;;;;;;5.20;1.20;;;;;;;2.98;69.44;100194.02;105733;1253;61208;-70
2023/03/27 00:16:51;;;;;;;6.80;1.10;;;;;;;2.92;69.41;100198.70;105539;1260;74376;-73
2023/03/27 00:19:17;;;;;;;5.20;1.10;;;;;;;2.85;69.49;100205.24;105994;1257;70164;-70
2023/03/27 00:21:44;;;;;;;6.10;1.10;;;;;;;2.78;69.23;100211.89;105774;1254;72715;-71
2023/03/27 00:24:11;;;;;;;7.90;1.30;;;;;;;2.70;69.50;100219.50;105846;1257;61784;-71
2023/03/27 00:26:39;;;;;;;7.10;1.30;;;;;;;2.59;69.31;100224.31;105814;1256;61230;-71
2023/03/27 00:29:06;;;;;;;6.10;1.00;;;;;;;2.54;69.51;100226.50;105811;1257;74716;-71
2023/03/27 00:31:33;;;;;;;4.70;0.90;;;;;;;2.44;69.41;100231.61;106158;1254;71271;-72
2023/03/27 00:34:01;;;;;;;6.60;1.20;;;;;;;2.34;69.27;100235.11;105931;1257;71476;-71
2023/03/27 00:36:27;;;;;;;8.10;1.30;;;;;;;2.30;69.63;100239.29;105741;1258;61270;-71
2023/03/27 00:38:54;;;;;;;5.30;1.00;;;;;;;2.21;69.79;100243.02;105455;1254;61288;-71
2023/03/27 00:41:21;;;;;;;7.30;1.20;;;;;;;2.13;70.16;100246.85;105751;1258;74399;-71
2023/03/27 00:43:52;;;;;;;6.70;1.00;;;;;;;2.04;70.83;100251.21;105433;1258;70007;-71
2023/03/27 00:46:40;;;;;;;3.20;1.10;;;;;;;1.97;70.82;100257.08;105578;1254;71220;-73
2023/03/27 00:49:10;;;;;;;7.90;1.10;;;;;;;1.89;71.00;100260.72;105541;1259;61344;-72
2023/03/27 00:51:40;;;;;;;6.00;1.20;;;;;;;1.80;71.17;100272.45;106353;1253;62160;-69
2023/03/27 00:54:08;;;;;;;8.10;1.40;;;;;;;1.75;71.77;100273.07;105536;1254;75184;-73
2023/03/27 00:56:37;;;;;;;7.20;1.10;;;;;;;1.68;72.11;100277.96;105628;1258;71134;-71
2023/03/27 00:59:11;;;;;;;6.60;1.10;;;;;;;1.61;72.26;100282.68;105842;1258;74140;-74
2023/03/27 01:01:39;;;;;;;4.50;1.10;;;;;;;1.54;72.55;100286.79;105808;1256;61251;-71
2023/03/27 01:04:07;;;;;;;5.80;1.00;;;;;;;1.49;72.76;100287.96;105536;1259;61216;-70
2023/03/27 01:06:35;;;;;;;6.60;1.40;;;;;;;1.43;72.92;100288.80;105649;1252;74755;-71
2023/03/27 01:09:03;;;;;;;7.70;1.50;;;;;;;1.39;72.93;100296.02;105861;1257;70654;-73
2023/03/27 01:11:35;;;;;;;5.90;1.30;;;;;;;1.34;73.28;100298.90;106313;1256;71979;-74
2023/03/27 01:14:29;;;;;;;3.60;1.00;;;;;;;1.29;73.29;100302.08;105775;1254;61483;-75
2023/03/27 01:17:08;;;;;;;7.40;1.70;;;;;;;1.24;73.63;100302.13;105821;1254;61336;-72
2023/03/27 01:20:04;;;;;;;9.10;2.00;;;;;;;1.18;74.15;100305.27;105712;1256;73521;-70
2023/03/27 01:22:52;;;;;;;7.20;1.50;;;;;;;1.12;74.30;100310.36;105775;1257;70929;-73
2023/03/27 01:25:36;;;;;;;5.00;1.30;;;;;;;1.09;74.37;100311.02;105829;1257;70429;-71
2023/03/27 01:28:25;;;;;;;8.10;1.40;;;;;;;1.05;74.66;100314.14;105968;1260;62717;-71
2023/03/27 01:31:05;;;;;;;4.60;1.30;;;;;;;1.02;74.83;100319.39;105861;1257;61234;-72
2023/03/27 01:34:03;;;;;;;8.60;1.50;;;;;;;0.99;74.95;100326.02;105961;1254;73285;-71
2023/03/27 01:37:05;;;;;;;6.10;1.20;;;;;;;0.98;74.98;100327.19;105690;1256;69709;-72
2023/03/27 01:39:39;;;;;;;6.00;1.50;;;;;;;0.95;75.33;100329.76;105685;1259;74285;-71
2023/03/27 01:42:18;;;;;;;4.70;1.10;;;;;;;0.91;75.64;100335.64;105781;1255;61234;-70
2023/03/27 01:44:59;;;;;;;6.40;1.70;;;;;;;0.87;75.66;100337.20;106135;1252;61344;-71
2023/03/27 01:47:40;;;;;;;10.80;1.80;;;;;;;0.82;75.88;100336.84;105892;1254;73318;-69
2023/03/27 01:50:28;;;;;;;5.90;1.10;;;;;;;0.77;76.13;100345.40;105826;1258;69741;-71
2023/03/27 01:53:02;;;;;;;8.20;1.50;;;;;;;0.72;76.46;100346.98;105874;1254;71154;-71
2023/03/27 01:55:35;;;;;;;6.70;1.20;;;;;;;0.70;76.67;100349.10;105827;1256;61333;-71
2023/03/27 01:58:12;;;;;;;9.90;1.60;;;;;;;0.67;76.70;100352.44;105874;1253;62089;-71
2023/03/27 02:00:44;;;;;;;7.10;1.40;;;;;;;0.65;76.66;100360.27;105614;1260;74686;-71
2023/03/27 02:03:28;;;;;;;6.40;1.10;;;;;;;0.63;76.60;100359.55;106192;1266;69643;-73
2023/03/27 02:06:02;;;;;;;6.50;1.20;;;;;;;0.61;76.54;100362.69;105731;1254;70756;-73
2023/03/27 02:09:03;;;;;;;5.30;1.50;;;;;;;0.59;76.84;100366.48;105605;1260;61810;-72
2023/03/27 02:11:48;;;;;;;6.20;1.80;;;;;;;0.55;76.82;100364.52;105967;1253;61322;-74
2023/03/27 02:14:21;;;;;;;5.80;1.30;;;;;;;0.54;76.89;100364.91;105613;1254;74970;-70
2023/03/27 02:16:57;;;;;;;6.50;1.40;;;;;;;0.55;76.98;100372.02;106001;1254;69592;-75
2023/03/27 02:19:36;;;;;;;5.80;1.40;;;;;;;0.54;76.92;100371.75;106409;1256;72648;-71
2023/03/27 02:22:03;;;;;;;4.90;1.10;;;;;;;0.55;76.90;100372.72;105819;1257;61324;-71
2023/03/27 02:24:30;;;;;;;7.30;1.30;;;;;;;0.55;76.83;100374.23;105821;1258;61455;-71
2023/03/27 02:27:11;;;;;;;6.50;1.30;;;;;;;0.56;76.99;100374.23;105814;1254;74396;-71
2023/03/27 02:29:51;;;;;;;9.00;1.60;;;;;;;0.58;76.59;100375.45;105661;1257;70640;-73
2023/03/27 02:32:44;;;;;;;7.20;1.80;;;;;;;0.58;76.99;100385.84;105816;1254;71500;-70
2023/03/27 02:35:17;;;;;;;7.50;1.50;;;;;;;0.57;77.10;100390.09;106319;1256;61238;-71
2023/03/27 02:38:10;;;;;;;7.50;1.50;;;;;;;0.56;77.10;100392.96;105693;1258;61241;-70
2023/03/27 02:40:51;;;;;;;10.40;2.20;;;;;;;0.55;77.51;100406.61;105963;1256;74362;-71
2023/03/27 02:43:26;;;;;;;5.50;1.60;;;;;;;0.55;77.76;100407.30;105751;1255;71044;-72
2023/03/27 02:46:22;;;;;;;15.80;3.20;;;;;;;0.55;77.84;100409.77;105779;1259;70160;-71
2023/03/27 02:48:55;;;;;;;20.40;2.70;;;;;;;0.56;77.80;100413.34;105793;1254;62293;-72
2023/03/27 02:51:35;;;;;;;15.70;2.20;;;;;;;0.55;78.02;100416.73;105713;1256;61241;-70
2023/03/27 02:54:15;;;;;;;15.20;2.50;;;;;;;0.54;78.21;100415.42;106067;1257;73204;-70
2023/03/27 02:56:51;;;;;;;12.00;1.70;;;;;;;0.51;78.39;100417.01;105692;1254;70819;-73
2023/03/27 02:59:23;;;;;;;10.00;2.00;;;;;;;0.49;78.49;100421.40;105778;1252;71974;-71
2023/03/27 03:01:51;;;;;;;20.00;2.80;;;;;;;0.44;78.81;100425.42;105426;1259;61349;-73
2023/03/27 03:04:24;;;;;;;16.70;2.70;;;;;;;0.42;79.01;100432.88;105661;1253;61831;-72
2023/03/27 03:06:53;;;;;;;20.40;2.70;;;;;;;0.39;79.15;100442.23;105846;1255;75478;-71
2023/03/27 03:09:19;;;;;;;19.20;2.70;;;;;;;0.41;79.11;100438.69;105888;1257;69682;-71
2023/03/27 03:11:50;;;;;;;25.50;3.50;;;;;;;0.46;79.09;100439.69;105562;1258;72753;-70
2023/03/27 03:14:21;;;;;;;13.70;2.60;;;;;;;0.51;79.20;100445.04;106411;1258;61305;-70
2023/03/27 03:16:48;;;;;;;17.70;3.10;;;;;;;0.57;78.86;100449.26;105752;1254;61360;-71
2023/03/27 03:19:18;;;;;;;24.20;3.80;;;;;;;0.63;78.83;100444.81;105759;1254;73796;-71
2023/03/27 03:21:45;;;;;;;16.80;2.90;;;;;;;0.66;78.63;100441.29;105752;1254;72374;-72
2023/03/27 03:24:12;;;;;;;15.90;2.40;;;;;;;0.67;78.52;100442.46;105756;1254;71833;-72
2023/03/27 03:26:38;;;;;;;18.20;3.00;;;;;;;0.66;78.59;100447.60;105794;1253;61410;-71
2023/03/27 03:29:05;;;;;;;13.00;2.20;;;;;;;0.63;78.64;100450.77;105785;1254;61233;-70
2023/03/27 03:31:41;;;;;;;11.00;1.60;;;;;;;0.59;78.82;100452.05;105887;1257;74004;-71
2023/03/27 03:34:15;;;;;;;8.10;1.50;;;;;;;0.56;79.12;100452.83;106034;1253;72130;-71
2023/03/27 03:36:47;;;;;;;9.10;1.40;;;;;;;0.52;79.45;100455.91;105789;1257;72103;-71
2023/03/27 03:39:16;;;;;;;8.30;1.70;;;;;;;0.49;79.74;100462.77;105776;1253;61299;-71
2023/03/27 03:41:43;;;;;;;7.70;1.60;;;;;;;0.48;79.85;100465.66;105783;1254;61252;-73
2023/03/27 03:44:09;;;;;;;5.70;1.30;;;;;;;0.45;80.11;100470.36;105669;1259;73726;-72
2023/03/27 03:46:36;;;;;;;6.30;1.40;;;;;;;0.42;80.34;100474.77;105798;1254;70532;-71
2023/03/27 03:49:03;;;;;;;8.50;1.90;;;;;;;0.41;80.42;100481.64;105706;1254;71492;-74
2023/03/27 03:51:31;;;;;;;7.00;1.90;;;;;;;0.40;80.80;100486.23;105860;1254;61264;-70
2023/03/27 03:53:58;;;;;;;9.30;1.60;;;;;;;0.41;80.84;100488.60;106362;1254;61186;-72
2023/03/27 03:56:26;;;;;;;8.10;1.70;;;;;;;0.42;81.08;100496.90;105873;1257;73684;-71
2023/03/27 03:58:53;;;;;;;5.80;1.30;;;;;;;0.43;81.26;100499.09;105860;1257;70050;-71
2023/03/27 04:01:20;;;;;;;9.80;1.90;;;;;;;0.45;81.46;100502.55;105739;1257;71409;-72
2023/03/27 04:03:48;;;;;;;7.30;1.70;;;;;;;0.48;81.87;100505.34;105812;1253;61265;-71
2023/03/27 04:06:25;;;;;;;6.20;1.60;;;;;;;0.50;82.45;100509.30;105854;1254;61349;-72
2023/03/27 04:08:52;;;;;;;11.50;1.80;;;;;;;0.55;82.83;100510.51;105768;1255;74616;-71
2023/03/27 04:11:19;;;;;;;8.20;1.80;;;;;;;0.58;83.46;100510.83;106351;1253;70913;-71
2023/03/27 04:13:48;;;;;;;6.10;2.10;;;;;;;0.61;83.60;100506.08;105722;1254;72691;-71
2023/03/27 04:16:15;;;;;;;11.30;1.90;;;;;;;0.62;83.97;100509.31;105833;1254;61245;-72
2023/03/27 04:18:41;;;;;;;11.40;1.90;;;;;;;0.63;84.18;100507.52;105822;1256;61234;-72
2023/03/27 04:21:16;;;;;;;9.30;1.70;;;;;;;0.61;84.74;100511.98;105656;1254;74398;-70
2023/03/27 04:23:47;;;;;;;14.10;2.50;;;;;;;0.61;84.84;100516.48;105919;1254;71396;-70
2023/03/27 04:26:14;;;;;;;8.20;2.00;;;;;;;0.62;84.96;100518.02;105833;1257;71218;-70
2023/03/27 04:28:41;;;;;;;7.50;1.80;;;;;;;0.62;85.12;100521.11;106307;1257;62698;-70
2023/03/27 04:31:09;;;;;;;11.20;2.20;;;;;;;0.64;85.37;100529.71;105761;1254;61963;-72
2023/03/27 04:33:38;;;;;;;10.10;2.50;;;;;;;0.65;85.56;100534.13;105831;1254;74404;-71
2023/03/27 04:36:06;;;;;;;15.00;2.80;;;;;;;0.68;85.69;100543.63;105799;1254;70783;-70
2023/03/27 04:38:35;;;;;;;9.20;1.90;;;;;;;0.73;85.53;100543.80;105666;1254;72810;-72
2023/03/27 04:41:03;;;;;;;10.00;2.20;;;;;;;0.75;85.79;100547.79;105795;1252;61384;-71
2023/03/27 04:43:30;;;;;;;12.20;2.10;;;;;;;0.80;85.58;100553.88;105749;1254;61181;-71
2023/03/27 04:45:57;;;;;;;11.80;2.90;;;;;;;0.82;85.41;100551.66;105986;1254;73155;-71
2023/03/27 04:48:23;;;;;;;12.30;3.40;;;;;;;0.83;85.38;100552.48;105562;1253;70581;-71
2023/03/27 04:50:50;;;;;;;11.40;3.70;;;;;;;0.81;85.17;100553.31;105696;1253;71378;-70
2023/03/27 04:53:19;;;;;;;17.00;6.50;;;;;;;0.81;84.93;100556.08;105665;1254;61318;-71
2023/03/27 04:55:49;;;;;;;15.00;4.90;;;;;;;0.80;84.94;100563.66;105827;1253;61347;-71
2023/03/27 04:58:19;;;;;;;11.50;2.70;;;;;;;0.77;84.82;100561.76;105824;1254;73474;-71
2023/03/27 05:00:53;;;;;;;13.30;4.90;;;;;;;0.76;84.70;100565.52;105860;1254;72446;-71
2023/03/27 05:03:26;;;;;;;24.70;9.60;;;;;;;0.74;85.15;100571.73;106006;1259;70632;-69
2023/03/27 05:05:53;;;;;;;20.80;8.10;;;;;;;0.71;85.08;100577.03;105714;1254;61335;-70
2023/03/27 05:08:20;;;;;;;14.30;4.70;;;;;;;0.72;85.06;100577.46;105637;1253;61370;-71
2023/03/27 05:10:47;;;;;;;41.00;13.70;;;;;;;0.73;85.09;100580.73;105770;1258;76089;-70
2023/03/27 05:13:14;;;;;;;29.90;7.20;;;;;;;0.71;85.25;100588.11;105813;1254;70000;-71
2023/03/27 05:15:40;;;;;;;31.10;7.40;;;;;;;0.71;85.34;100586.12;105785;1257;71587;-71
2023/03/27 05:18:07;;;;;;;28.60;8.20;;;;;;;0.71;85.37;100584.48;105789;1254;61406;-71
2023/03/27 05:20:35;;;;;;;9.10;2.50;;;;;;;0.71;85.35;100585.34;106393;1252;61245;-72
2023/03/27 05:23:02;;;;;;;9.80;2.50;;;;;;;0.73;85.30;100592.17;105727;1254;74691;-72
2023/03/27 05:25:29;;;;;;;11.50;2.60;;;;;;;0.75;85.17;100594.43;105857;1252;70973;-71
2023/03/27 05:27:56;;;;;;;22.80;3.80;;;;;;;0.77;85.16;100602.34;105856;1254;71099;-72
2023/03/27 05:30:25;;;;;;;18.20;3.10;;;;;;;0.77;85.12;100605.23;105858;1254;61293;-69
2023/03/27 05:32:52;;;;;;;8.30;1.70;;;;;;;0.79;85.02;100612.06;105585;1254;61627;-70
2023/03/27 05:35:22;;;;;;;10.00;1.90;;;;;;;0.80;84.91;100613.08;105657;1258;238658;-73
2023/03/27 05:37:51;;;;;;;7.20;1.60;;;;;;;0.83;84.84;100616.16;105776;1253;72208;-70
2023/03/27 05:40:21;;;;;;;7.40;2.30;;;;;;;0.83;84.98;100620.33;106266;1257;70392;-72
2023/03/27 05:42:49;;;;;;;10.20;2.00;;;;;;;0.84;85.13;100618.53;105535;1260;61354;-71
2023/03/27 05:45:16;;;;;;;10.50;1.90;;;;;;;0.83;85.14;100620.88;105825;1257;61221;-71
2023/03/27 05:47:52;;;;;;;9.30;2.20;;;;;;;0.81;85.30;100622.25;105800;1254;73577;-72
2023/03/27 05:50:21;;;;;;;6.90;1.80;;;;;;;0.81;85.04;100626.58;105798;1253;70994;-71
2023/03/27 05:52:55;;;;;;;6.40;2.20;;;;;;;0.80;85.13;100635.48;105694;1255;72364;-70
2023/03/27 05:55:23;;;;;;;14.10;3.30;;;;;;;0.80;85.08;100637.11;106260;1254;61468;-71
2023/03/27 05:57:53;;;;;;;8.60;2.10;;;;;;;0.83;84.89;100641.27;105601;1254;61165;-73
2023/03/27 06:00:24;;;;;;;7.90;1.90;;;;;;;0.87;84.82;100640.22;105840;1254;73447;-73
2023/03/27 06:02:59;;;;;;;7.60;2.40;;;;;;;0.93;84.61;100637.50;105714;1254;69857;-72
2023/03/27 06:05:28;;;;;;;7.10;2.10;;;;;;;0.99;84.38;100642.34;105732;1256;71948;-74
2023/03/27 06:07:57;;;;;;;6.80;1.80;;;;;;;1.07;83.82;100643.60;105686;1257;61300;-73
2023/03/27 06:10:27;;;;;;;6.50;1.80;;;;;;;1.17;83.73;100641.32;105874;1254;61319;-70
2023/03/27 06:12:59;;;;;;;8.60;1.80;;;;;;;1.27;83.76;100647.69;106263;1257;74962;-71
2023/03/27 06:15:26;;;;;;;9.50;2.00;;;;;;;1.37;83.21;100647.95;105944;1253;70656;-71
2023/03/27 06:17:53;;;;;;;7.50;1.80;;;;;;;1.44;82.76;100655.80;105879;1253;71506;-74
2023/03/27 06:20:20;;;;;;;7.70;2.30;;;;;;;1.46;82.52;100654.79;105704;1254;61699;-71
2023/03/27 06:22:49;;;;;;;8.80;2.10;;;;;;;1.49;82.01;100664.54;105766;1253;61706;-71
2023/03/27 06:25:19;;;;;;;8.60;2.40;;;;;;;1.53;81.69;100662.83;105852;1253;73964;-71
2023/03/27 06:27:48;;;;;;;7.20;1.70;;;;;;;1.58;81.61;100660.13;105777;1257;71311;-72
2023/03/27 06:30:17;;;;;;;7.00;1.30;;;;;;;1.68;81.53;100667.21;106128;1255;72676;-72
2023/03/27 06:32:53;;;;;;;5.90;1.40;;;;;;;1.78;81.13;100677.14;105597;1254;61843;-73
2023/03/27 06:35:20;;;;;;;6.80;1.50;;;;;;;1.91;80.51;100676.45;105776;1253;62044;-71
2023/03/27 06:37:49;;;;;;;6.10;1.60;;;;;;;2.02;80.21;100680.46;105741;1253;75865;-72
2023/03/27 06:40:21;;;;;;;8.90;2.00;;;;;;;2.11;79.86;100686.27;105829;1253;72235;-71
2023/03/27 06:42:50;;;;;;;7.00;1.60;;;;;;;2.13;79.10;100691.30;105650;1258;71167;-70
2023/03/27 06:45:17;;;;;;;9.80;1.60;;;;;;;2.12;79.18;100690.21;105728;1257;61245;-70
2023/03/27 06:47:50;;;;;;;4.60;1.50;;;;;;;2.10;79.27;100691.21;106246;1253;61118;-71
2023/03/27 06:50:23;;;;;;;7.40;1.60;;;;;;;2.01;79.47;100697.98;105572;1260;72611;-71
2023/03/27 06:52:50;;;;;;;6.10;1.90;;;;;;;2.11;79.35;100703.00;105695;1257;69695;-72
2023/03/27 06:55:19;;;;;;;7.20;1.60;;;;;;;2.14;79.02;100707.63;105754;1254;71226;-71
2023/03/27 06:57:48;;;;;;;6.30;1.60;;;;;;;2.20;79.04;100708.92;105840;1257;61735;-72
2023/03/27 07:00:21;;;;;;;6.50;1.80;;;;;;;2.23;79.12;100713.20;105745;1252;61660;-71
2023/03/27 07:02:52;;;;;;;6.80;1.80;;;;;;;2.26;78.93;100717.13;105701;1253;74767;-72
2023/03/27 07:05:19;;;;;;;6.40;1.50;;;;;;;2.36;79.31;100717.41;106278;1257;69954;-72
2023/03/27 07:07:46;;;;;;;5.40;1.70;;;;;;;2.43;78.67;100722.08;105414;1253;71135;-71
2023/03/27 07:10:15;;;;;;;7.90;1.70;;;;;;;2.49;78.37;100729.83;105712;1254;62978;-73
2023/03/27 07:12:46;;;;;;;7.30;1.70;;;;;;;2.55;78.15;100729.70;105802;1254;61274;-71
2023/03/27 07:15:13;;;;;;;7.10;2.10;;;;;;;2.58;77.96;100726.19;105745;1257;74385;-71
2023/03/27 07:17:42;;;;;;;6.80;1.60;;;;;;;2.68;77.98;100728.65;105773;1256;70079;-70
2023/03/27 07:20:15;;;;;;;7.80;2.10;;;;;;;2.83;77.49;100729.36;105740;1257;73914;-72
2023/03/27 07:22:42;;;;;;;6.50;1.80;;;;;;;2.85;77.56;100737.75;106258;1253;61237;-71
2023/03/27 07:25:11;;;;;;;6.50;2.00;;;;;;;2.79;77.05;100740.36;105913;1256;61235;-71
2023/03/27 07:27:37;;;;;;;8.80;1.80;;;;;;;2.71;77.02;100751.45;105820;1254;73481;-70
2023/03/27 07:30:06;;;;;;;9.10;2.00;;;;;;;2.68;77.64;100754.37;105795;1254;70953;-71
2023/03/27 07:32:34;;;;;;;7.40;1.90;;;;;;;2.73;78.00;100755.86;105785;1258;71470;-71
2023/03/27 07:35:04;;;;;;;6.00;1.80;;;;;;;2.88;77.27;100758.71;105714;1254;61335;-73
2023/03/27 07:37:31;;;;;;;7.30;1.80;;;;;;;3.02;77.92;100753.01;105644;1255;61093;-70
2023/03/27 07:39:57;;;;;;;7.70;2.00;;;;;;;3.11;77.19;100759.12;105702;1257;72163;-71
2023/03/27 07:42:24;;;;;;;6.50;1.90;;;;;;;3.13;76.57;100761.35;106171;1257;71794;-71
2023/03/27 07:44:51;;;;;;;9.00;1.90;;;;;;;3.17;76.15;100760.71;105735;1253;73709;-73
2023/03/27 07:47:18;;;;;;;9.70;2.40;;;;;;;3.26;75.79;100759.05;105773;1256;61244;-71
2023/03/27 07:49:44;;;;;;;6.80;1.90;;;;;;;3.41;76.31;100759.78;105870;1254;61344;-70
2023/03/27 07:52:11;;;;;;;7.00;2.00;;;;;;;3.53;76.20;100760.85;105842;1256;61145;-70
2023/03/27 07:54:41;;;;;;;8.10;2.10;;;;;;;3.62;75.21;100766.94;105805;1253;71534;-72
2023/03/27 07:57:09;;;;;;;10.00;1.90;;;;;;;3.77;75.59;100767.27;105684;1254;72720;-73
2023/03/27 07:59:36;;;;;;;9.40;1.80;;;;;;;3.93;74.97;100766.32;106176;1253;61642;-71
2023/03/27 08:02:02;;;;;;;5.70;1.90;;;;;;;4.05;74.29;100773.81;105857;1253;61269;-73
2023/03/27 08:04:29;;;;;;;5.90;1.90;;;;;;;4.19;73.26;100765.84;105524;1256;73792;-72
2023/03/27 08:06:56;;;;;;;7.70;1.90;;;;;;;4.34;72.48;100769.07;105774;1252;72056;-70
2023/03/27 08:09:22;;;;;;;7.00;1.90;;;;;;;4.47;72.29;100765.69;105832;1254;61234;-71
2023/03/27 08:11:49;;;;;;;6.70;1.80;;;;;;;4.59;71.67;100771.11;105725;1253;61273;-72
2023/03/27 08:14:16;;;;;;;7.80;1.90;;;;;;;4.65;71.34;100774.77;105573;1254;61783;-71
2023/03/27 08:16:43;;;;;;;7.20;1.40;;;;;;;4.63;70.47;100783.71;105885;1253;72225;-71
2023/03/27 08:19:10;;;;;;;10.70;2.20;;;;;;;4.61;69.49;100787.63;106303;1252;69644;-72
2023/03/27 08:21:37;;;;;;;5.40;1.30;;;;;;;4.75;69.91;100788.67;105625;1254;72684;-72
2023/03/27 08:24:04;;;;;;;5.50;1.60;;;;;;;4.94;68.14;100798.52;105856;1254;61233;-73
2023/03/27 08:26:31;;;;;;;6.80;1.50;;;;;;;5.12;68.27;100784.81;105676;1257;61224;-70
2023/03/27 08:28:59;;;;;;;7.10;1.60;;;;;;;5.23;67.83;100779.84;105656;1254;74659;-71
2023/03/27 08:31:29;;;;;;;8.10;1.60;;;;;;;5.27;66.66;100785.95;105602;1253;70478;-74
2023/03/27 08:33:56;;;;;;;4.90;1.40;;;;;;;5.19;65.96;100795.46;105806;1255;72622;-74
2023/03/27 08:36:23;;;;;;;12.20;2.20;;;;;;;5.16;66.24;100791.36;106408;1253;61271;-71
2023/03/27 08:38:49;;;;;;;4.90;1.40;;;;;;;5.08;66.13;100805.73;105737;1257;61245;-72
2023/03/27 08:41:37;;;;;;;7.70;1.50;;;;;;;4.99;66.94;100799.70;105729;1257;73135;-74
2023/03/27 08:44:10;;;;;;;6.50;2.00;;;;;;;4.84;67.51;100806.36;105740;1254;69883;-71
2023/03/27 08:46:40;;;;;;;6.80;3.00;;;;;;;4.77;67.97;100810.21;105657;1258;71143;-71
2023/03/27 08:49:18;;;;;;;29.20;7.20;;;;;;;4.72;67.96;100815.34;105695;1254;61270;-72
2023/03/27 08:51:55;;;;;;;15.70;3.70;;;;;;;4.66;68.11;100815.85;105655;1253;61296;-71
2023/03/27 08:54:26;;;;;;;28.00;6.50;;;;;;;4.74;68.14;100808.22;106252;1254;74733;-71
2023/03/27 08:56:53;;;;;;;15.80;4.60;;;;;;;4.76;67.87;100822.52;105686;1252;70073;-74
2023/03/27 08:59:23;;;;;;;7.70;2.30;;;;;;;4.81;67.45;100825.48;105942;1257;71757;-71
2023/03/27 09:02:00;;;;;;;26.80;7.60;;;;;;;5.03;67.93;100812.80;105737;1254;61749;-71
2023/03/27 09:04:45;;;;;;;27.30;7.60;;;;;;;5.42;66.97;100816.17;105773;1254;61746;-70
2023/03/27 09:07:23;;;;;;;20.90;5.00;;;;;;;5.64;65.63;100824.54;105751;1256;73157;-70
2023/03/27 09:10:14;;;;;;;9.60;2.10;;;;;;;5.61;65.35;100821.00;105954;1254;71287;-70
2023/03/27 09:12:44;;;;;;;6.40;1.70;;;;;;;5.61;65.94;100821.27;105772;1254;72095;-72
2023/03/27 09:15:20;;;;;;;6.60;1.90;;;;;;;5.75;66.05;100820.75;105964;1253;61831;-70
2023/03/27 09:17:53;;;;;;;98.10;30.90;;;;;;;5.95;64.86;100830.11;105867;1254;61385;-70
2023/03/27 09:20:23;;;;;;;33.20;11.30;;;;;;;6.10;63.71;100829.81;105856;1256;73294;-73
2023/03/27 09:22:54;;;;;;;9.50;2.50;;;;;;;6.16;62.24;100819.31;105899;1253;70343;-70
2023/03/27 09:25:45;;;;;;;8.70;2.10;;;;;;;6.14;61.90;100828.45;105810;1253;72699;-72
2023/03/27 09:28:24;;;;;;;5.50;1.40;;;;;;;5.89;62.23;100838.05;105913;1253;61254;-71
2023/03/27 09:30:51;;;;;;;6.80;1.50;;;;;;;5.77;62.81;100821.23;106164;1254;62827;-71
2023/03/27 09:33:18;;;;;;;5.70;1.80;;;;;;;5.91;62.46;100820.66;105765;1253;75048;-71
2023/03/27 09:35:46;;;;;;;21.10;7.20;;;;;;;6.10;62.00;100822.77;105704;1253;71198;-70
2023/03/27 09:38:38;;;;;;;21.30;8.30;;;;;;;6.26;61.55;100820.27;105703;1257;71480;-74
2023/03/27 09:41:16;;;;;;;6.20;1.30;;;;;;;6.37;59.85;100826.77;105815;1257;61270;-74
2023/03/27 09:43:51;;;;;;;3.80;1.10;;;;;;;6.45;58.38;100817.27;105890;1253;61268;-71
2023/03/27 09:46:22;;;;;;;4.80;1.20;;;;;;;6.61;58.14;100819.23;105866;1254;73230;-71
2023/03/27 09:49:04;;;;;;;5.10;1.10;;;;;;;6.62;58.82;100819.56;106258;1255;71696;-71
2023/03/27 09:51:52;;;;;;;4.60;1.20;;;;;;;6.51;56.62;100832.65;105681;1254;71275;-72
2023/03/27 09:54:21;;;;;;;6.10;1.20;;;;;;;6.79;55.99;100811.70;105774;1256;61377;-70
2023/03/27 09:56:53;;;;;;;4.60;0.90;;;;;;;6.95;56.12;100817.58;105801;1254;61283;-72
2023/03/27 09:59:39;;;;;;;3.50;1.00;;;;;;;7.02;55.22;100821.31;105771;1253;73522;-69
2023/03/27 10:02:19;;;;;;;4.10;1.10;;;;;;;7.09;53.78;100831.35;105846;1253;71238;-70
2023/03/27 10:04:58;;;;;;;3.90;1.20;;;;;;;7.06;52.53;100824.39;106362;1257;71555;-71
2023/03/27 10:07:25;;;;;;;5.00;0.90;;;;;;;7.11;54.56;100825.40;105757;1254;61314;-71
2023/03/27 10:10:10;;;;;;;3.80;1.00;;;;;;;7.11;54.38;100818.67;105788;1256;61230;-74
2023/03/27 10:12:38;;;;;;;2.90;1.00;;;;;;;7.00;55.92;100826.38;105730;1259;74449;-71
2023/03/27 10:15:21;;;;;;;5.00;1.30;;;;;;;6.77;56.68;100832.31;105821;1254;71053;-70
2023/03/27 10:17:48;;;;;;;4.30;1.30;;;;;;;6.57;58.16;100840.56;105742;1254;72620;-70
2023/03/27 10:20:19;;;;;;;4.30;1.30;;;;;;;6.50;58.79;100836.66;105863;1252;61206;-70
2023/03/27 10:22:52;;;;;;;5.90;1.50;;;;;;;6.46;58.56;100833.31;105855;1254;61582;-69
2023/03/27 10:25:28;;;;;;;5.90;1.20;;;;;;;6.50;58.20;100847.02;105829;1252;74692;-70
2023/03/27 10:28:33;;;;;;;4.70;1.20;;;;;;;6.56;58.29;100843.81;105828;1254;71440;-69
2023/03/27 10:31:03;;;;;;;18.20;8.90;;;;;;;6.55;57.40;100839.69;105657;1254;71129;-70
2023/03/27 10:33:32;;;;;;;7.30;1.90;;;;;;;6.65;57.90;100826.42;105739;1254;61380;-72
2023/03/27 10:35:59;;;;;;;13.30;5.60;;;;;;;6.91;57.89;100835.57;105899;1254;61084;-72
2023/03/27 10:38:27;;;;;;;7.90;4.10;;;;;;;7.06;56.44;100842.23;106360;1252;75767;-75
2023/03/27 10:40:55;;;;;;;5.70;3.00;;;;;;;7.18;55.14;100837.56;105809;1253;71256;-71
2023/03/27 10:43:43;;;;;;;8.30;2.40;;;;;;;7.29;56.04;100847.13;105475;1253;72673;-70
2023/03/27 10:46:22;;;;;;;4.00;1.10;;;;;;;7.03;55.79;100854.13;105806;1256;61345;-71
2023/03/27 10:49:29;;;;;;;3.40;1.20;;;;;;;6.70;57.83;100857.95;105536;1253;62335;-72
2023/03/27 10:52:01;;;;;;;3.10;1.10;;;;;;;6.63;58.83;100865.12;105544;1255;74730;-73
2023/03/27 10:54:42;;;;;;;6.80;3.40;;;;;;;6.78;59.25;100851.50;106325;1255;70366;-72
2023/03/27 10:57:16;;;;;;;6.20;1.70;;;;;;;7.05;58.94;100850.60;105752;1254;72473;-71
2023/03/27 10:59:50;;;;;;;10.00;3.70;;;;;;;6.85;57.66;100867.63;105708;1254;61400;-70
2023/03/27 11:02:24;;;;;;;6.70;1.50;;;;;;;6.43;60.55;100892.10;105629;1253;61359;-72
2023/03/27 11:04:55;;;;;;;2.90;0.70;;;;;;;5.78;65.27;100906.69;105863;1253;74723;-72
2023/03/27 11:07:32;;;;;;;3.90;0.70;;;;;;;5.00;68.10;100917.53;105589;1255;71506;-71
2023/03/27 11:10:16;;;;;;;3.20;0.50;;;;;;;4.31;70.62;100941.25;105968;1254;71933;-71
2023/03/27 11:12:52;;;;;;;2.40;0.40;;;;;;;3.78;72.78;100938.11;105745;1254;61311;-71
2023/03/27 11:15:25;;;;;;;3.00;0.50;;;;;;;3.50;75.29;100922.86;105720;1253;61237;-71
2023/03/27 11:18:21;;;;;;;3.10;0.70;;;;;;;3.48;76.42;100927.57;105846;1255;72727;-71
2023/03/27 11:21:05;;;;;;;2.20;0.60;;;;;;;3.51;76.03;100929.44;105864;1253;71164;-70
2023/03/27 11:23:41;;;;;;;2.10;0.40;;;;;;;3.68;76.01;100930.01;105857;1252;71422;-72
2023/03/27 11:26:11;;;;;;;2.40;0.50;;;;;;;3.86;75.93;100919.26;105722;1257;61687;-71
2023/03/27 11:28:43;;;;;;;1.70;0.60;;;;;;;4.00;74.72;100920.75;106131;1254;61289;-71
2023/03/27 11:31:33;;;;;;;1.90;0.80;;;;;;;4.27;74.54;100920.38;105591;1261;74692;-70
2023/03/27 11:34:11;;;;;;;4.80;1.30;;;;;;;4.57;72.66;100921.24;105812;1253;71473;-71
2023/03/27 11:37:01;;;;;;;7.60;2.20;;;;;;;4.83;71.65;100928.46;105752;1253;72354;-72
2023/03/27 11:39:38;;;;;;;4.70;1.20;;;;;;;5.13;69.19;100929.02;105757;1257;61257;-72
2023/03/27 11:42:15;;;;;;;3.40;0.90;;;;;;;5.32;66.56;100939.64;105729;1258;61205;-72
2023/03/27 11:44:41;;;;;;;1.90;0.60;;;;;;;5.46;65.90;100926.16;105737;1257;73139;-71
2023/03/27 11:47:11;;;;;;;2.00;0.50;;;;;;;5.60;64.05;100926.48;105745;1253;71648;-72
2023/03/27 11:50:07;;;;;;;3.00;0.50;;;;;;;5.83;63.09;100920.07;106392;1255;72733;-72